createdAt,value
2022-10-20T00:01:42.124Z,78.20
2022-10-20T00:04:17.154Z,78.10
2022-10-20T00:06:52.040Z,78.10
2022-10-20T00:09:27.005Z,78.50
2022-10-20T00:12:01.902Z,78.10
2022-10-20T00:14:36.774Z,78.10
2022-10-20T00:17:11.682Z,78.20
2022-10-20T00:19:50.018Z,78.50
2022-10-20T00:22:25.073Z,78.50
2022-10-20T00:25:00.008Z,78.50
2022-10-20T00:27:35.097Z,78.80
2022-10-20T00:30:10.582Z,78.90
2022-10-20T00:32:47.828Z,78.70
2022-10-20T00:35:22.997Z,78.70
2022-10-20T00:37:58.274Z,78.70
2022-10-20T00:40:33.183Z,78.60
2022-10-20T00:43:16.503Z,78.60
2022-10-20T00:45:56.241Z,78.60
2022-10-20T00:48:32.117Z,78.70
2022-10-20T00:51:07.148Z,78.60
2022-10-20T00:53:44.457Z,78.70
2022-10-20T00:56:20.662Z,78.80
2022-10-20T00:58:56.752Z,78.60
2022-10-20T01:01:32.526Z,78.60
2022-10-20T01:04:07.673Z,78.60
2022-10-20T01:06:42.622Z,78.60
2022-10-20T01:09:18.254Z,78.50
2022-10-20T01:12:20.346Z,78.50
2022-10-20T01:15:08.236Z,78.60
2022-10-20T01:18:05.719Z,78.80
2022-10-20T01:21:05.008Z,78.90
2022-10-20T01:24:05.614Z,79.60
2022-10-20T01:27:29.250Z,79.90
2022-10-20T01:30:12.860Z,80.10
2022-10-20T01:33:25.074Z,80.20
2022-10-20T01:36:17.333Z,80.20
2022-10-20T01:39:09.600Z,80.40
2022-10-20T01:41:54.162Z,80.50
2022-10-20T01:44:32.560Z,80.50
2022-10-20T01:47:09.762Z,80.40
2022-10-20T01:49:47.673Z,80.30
2022-10-20T01:52:23.548Z,80.20
2022-10-20T01:54:58.613Z,79.90
2022-10-20T01:58:10.564Z,79.70
2022-10-20T02:00:46.575Z,79.50
2022-10-20T02:03:51.216Z,79.10
2022-10-20T02:06:55.515Z,79.10
2022-10-20T02:09:45.139Z,79.10
2022-10-20T02:12:28.167Z,79.00
2022-10-20T02:15:04.477Z,78.90
2022-10-20T02:17:41.185Z,78.80
2022-10-20T02:20:17.327Z,78.70
2022-10-20T02:22:53.419Z,78.60
2022-10-20T02:25:30.877Z,78.50
2022-10-20T02:28:12.672Z,78.50
2022-10-20T02:30:48.070Z,78.40
2022-10-20T02:33:23.784Z,78.60
2022-10-20T02:35:59.908Z,78.80
2022-10-20T02:38:34.827Z,78.90
2022-10-20T02:41:09.945Z,78.80
2022-10-20T02:43:44.894Z,78.90
2022-10-20T02:46:19.910Z,78.90
2022-10-20T02:48:54.833Z,79.00
2022-10-20T02:51:29.713Z,79.20
2022-10-20T02:54:04.739Z,79.40
2022-10-20T02:56:39.714Z,79.40
2022-10-20T02:59:19.332Z,79.30
2022-10-20T03:01:54.377Z,79.20
2022-10-20T03:04:29.425Z,79.10
2022-10-20T03:07:04.423Z,79.00
2022-10-20T03:09:39.354Z,79.10
2022-10-20T03:12:14.275Z,79.10
2022-10-20T03:14:49.312Z,79.20
2022-10-20T03:17:24.481Z,79.20
2022-10-20T03:19:59.429Z,79.10
2022-10-20T03:22:34.374Z,79.20
2022-10-20T03:25:09.396Z,79.20
2022-10-20T03:27:44.400Z,79.20
2022-10-20T03:30:19.493Z,79.20
2022-10-20T03:32:55.770Z,79.20
2022-10-20T03:35:30.718Z,79.20
2022-10-20T03:38:05.650Z,79.30
2022-10-20T03:40:40.546Z,79.20
2022-10-20T03:43:15.559Z,79.30
2022-10-20T03:45:50.706Z,79.30
2022-10-20T03:48:25.694Z,79.30
2022-10-20T03:51:02.739Z,79.20
2022-10-20T03:53:37.724Z,79.70
2022-10-20T03:56:18.748Z,79.40
2022-10-20T03:58:53.847Z,79.30
2022-10-20T04:01:33.053Z,79.30
2022-10-20T04:04:08.016Z,79.40
2022-10-20T04:06:43.036Z,79.30
2022-10-20T04:09:17.991Z,79.40
2022-10-20T04:11:52.987Z,79.30
2022-10-20T04:14:28.036Z,79.20
2022-10-20T04:17:02.945Z,79.10
2022-10-20T04:19:37.926Z,78.90
2022-10-20T04:22:14.286Z,78.90
2022-10-20T04:24:49.508Z,79.00
2022-10-20T04:27:24.526Z,79.10
2022-10-20T04:29:59.576Z,79.40
2022-10-20T04:32:34.626Z,79.40
2022-10-20T04:35:09.698Z,79.30
2022-10-20T04:37:44.722Z,79.20
2022-10-20T04:40:19.725Z,79.10
2022-10-20T04:42:54.619Z,79.00
2022-10-20T04:45:29.608Z,79.00
2022-10-20T04:48:06.448Z,78.90
2022-10-20T04:50:41.324Z,79.00
2022-10-20T04:53:16.342Z,79.00
2022-10-20T04:55:56.406Z,79.20
2022-10-20T04:58:34.766Z,79.30
2022-10-20T05:01:10.286Z,79.60
2022-10-20T05:03:45.528Z,79.50
2022-10-20T05:06:30.989Z,79.40
2022-10-20T05:09:07.429Z,79.30
2022-10-20T05:11:43.041Z,79.30
2022-10-20T05:14:18.042Z,79.50
2022-10-20T05:16:53.033Z,79.60
2022-10-20T05:19:28.047Z,80.10
2022-10-20T05:22:03.072Z,80.20
2022-10-20T05:24:38.137Z,80.40
2022-10-20T05:27:13.345Z,80.30
2022-10-20T05:29:48.335Z,80.10
2022-10-20T05:32:23.347Z,79.90
2022-10-20T05:34:58.269Z,79.80
2022-10-20T05:37:33.288Z,79.80
2022-10-20T05:40:09.503Z,79.60
2022-10-20T05:42:44.966Z,79.60
2022-10-20T05:45:20.008Z,79.80
2022-10-20T05:47:55.002Z,80.00
2022-10-20T05:50:29.969Z,80.00
2022-10-20T05:53:04.944Z,80.00
2022-10-20T05:55:40.316Z,79.90
2022-10-20T05:58:17.600Z,80.00
2022-10-20T06:00:54.493Z,80.00
2022-10-20T06:03:29.627Z,80.20
2022-10-20T06:06:05.294Z,80.20
2022-10-20T06:08:41.450Z,80.50
2022-10-20T06:11:17.957Z,80.70
2022-10-20T06:13:53.614Z,80.90
2022-10-20T06:16:29.624Z,81.00
2022-10-20T06:19:05.450Z,81.00
2022-10-20T06:21:40.592Z,81.50
2022-10-20T06:24:16.556Z,81.90
2022-10-20T06:26:51.709Z,82.00
2022-10-20T06:29:26.778Z,82.00
2022-10-20T06:32:02.463Z,81.80
2022-10-20T06:34:37.410Z,81.70
2022-10-20T06:37:12.400Z,81.60
2022-10-20T06:39:47.624Z,81.30
2022-10-20T06:42:22.722Z,81.10
2022-10-20T06:44:58.731Z,80.80
2022-10-20T06:47:33.764Z,80.70
2022-10-20T06:50:09.245Z,80.30
2022-10-20T06:52:44.203Z,80.10
2022-10-20T06:55:19.180Z,80.00
2022-10-20T06:57:54.165Z,79.90
2022-10-20T07:03:09.055Z,79.50
2022-10-20T07:05:43.961Z,79.30
2022-10-20T07:08:18.965Z,79.20
2022-10-20T07:11:07.102Z,79.00
2022-10-20T07:13:42.977Z,78.90
2022-10-20T07:16:22.534Z,78.60
2022-10-20T07:18:58.009Z,78.60
2022-10-20T07:21:36.474Z,78.50
2022-10-20T07:24:12.303Z,78.40
2022-10-20T07:26:47.457Z,78.30
2022-10-20T07:29:22.659Z,78.00
2022-10-20T07:31:59.933Z,78.10
2022-10-20T07:34:36.411Z,77.90
2022-10-20T07:37:11.361Z,77.60
2022-10-20T07:39:46.323Z,77.70
2022-10-20T07:42:21.273Z,77.40
2022-10-20T07:44:56.211Z,77.60
2022-10-20T07:47:33.193Z,77.00
2022-10-20T07:50:12.971Z,76.70
2022-10-20T07:52:52.778Z,76.30
2022-10-20T07:55:42.997Z,75.90
2022-10-20T07:58:18.078Z,75.50
2022-10-20T08:00:53.030Z,74.80
2022-10-20T08:03:28.053Z,74.60
2022-10-20T08:06:04.134Z,74.10
2022-10-20T08:08:39.245Z,73.70
2022-10-20T08:11:14.903Z,73.10
2022-10-20T08:13:50.004Z,73.00
2022-10-20T08:16:34.104Z,72.80
2022-10-20T08:19:09.122Z,72.20
2022-10-20T08:21:44.444Z,71.60
2022-10-20T08:24:19.801Z,71.10
2022-10-20T08:26:54.778Z,70.80
2022-10-20T08:29:29.880Z,70.60
2022-10-20T08:32:05.370Z,70.30
2022-10-20T08:34:41.234Z,69.90
2022-10-20T08:37:16.190Z,69.50
2022-10-20T08:39:51.211Z,69.20
2022-10-20T08:42:27.071Z,68.60
2022-10-20T08:45:02.027Z,68.30
2022-10-20T08:47:38.816Z,67.60
2022-10-20T08:50:17.299Z,67.10
2022-10-20T08:52:57.942Z,66.00
2022-10-20T08:55:34.326Z,65.50
2022-10-20T08:58:17.013Z,64.70
2022-10-20T09:01:05.591Z,64.00
2022-10-20T09:03:41.680Z,63.90
2022-10-20T09:06:17.507Z,63.40
2022-10-20T09:08:54.833Z,62.10
2022-10-20T09:11:39.187Z,61.30
2022-10-20T09:14:16.723Z,60.60
2022-10-20T09:17:00.568Z,60.00
2022-10-20T09:19:36.452Z,59.20
2022-10-20T09:22:13.654Z,58.90
2022-10-20T09:24:51.518Z,58.30
2022-10-20T09:27:29.404Z,57.20
2022-10-20T09:30:35.240Z,55.90
2022-10-20T09:33:32.055Z,55.10
2022-10-20T09:36:17.817Z,54.50
2022-10-20T09:38:53.404Z,54.00
2022-10-20T09:41:33.548Z,53.80
2022-10-20T09:44:15.821Z,52.50
2022-10-20T09:46:53.298Z,51.60
2022-10-20T09:49:34.567Z,51.00
2022-10-20T09:52:24.500Z,50.30
2022-10-20T09:55:08.137Z,49.40
2022-10-20T09:57:48.008Z,49.10
2022-10-20T10:00:38.943Z,48.90
2022-10-20T10:03:21.435Z,48.40
2022-10-20T10:05:59.480Z,47.60
2022-10-20T10:08:47.348Z,45.70
2022-10-20T10:11:34.644Z,45.40
2022-10-20T10:14:23.323Z,45.00
2022-10-20T10:16:58.378Z,44.60
2022-10-20T10:19:34.702Z,44.10
2022-10-20T10:22:13.322Z,43.80
2022-10-20T10:24:49.773Z,43.40
2022-10-20T10:27:32.268Z,42.70
2022-10-20T10:30:35.645Z,42.30
2022-10-20T10:33:29.288Z,41.90
2022-10-20T10:36:30.657Z,41.80
2022-10-20T10:39:13.349Z,41.90
2022-10-20T10:42:12.426Z,41.90
2022-10-20T10:45:58.986Z,41.60
2022-10-20T10:49:19.775Z,41.30
2022-10-20T10:52:09.726Z,41.00
2022-10-20T10:54:50.669Z,40.40
2022-10-20T10:58:05.745Z,40.10
2022-10-20T11:01:39.249Z,40.10
2022-10-20T11:04:53.661Z,40.10
2022-10-20T11:07:46.145Z,39.60
2022-10-20T11:10:40.738Z,39.70
2022-10-20T11:13:43.458Z,39.80
2022-10-20T11:16:24.377Z,39.80
2022-10-20T11:19:08.128Z,39.70
2022-10-20T11:22:21.933Z,39.60
2022-10-20T11:25:33.592Z,39.80
2022-10-20T11:28:34.387Z,39.70
2022-10-20T11:31:31.994Z,39.50
2022-10-20T11:34:28.126Z,39.20
2022-10-20T11:37:29.371Z,39.10
2022-10-20T11:40:28.125Z,39.00
2022-10-20T11:43:37.285Z,38.90
2022-10-20T11:46:48.916Z,38.50
2022-10-20T11:49:24.554Z,38.60
2022-10-20T11:52:20.370Z,38.60
2022-10-20T11:55:23.078Z,38.80
2022-10-20T11:58:22.205Z,38.80
2022-10-20T12:01:22.992Z,38.70
2022-10-20T12:04:28.514Z,38.90
2022-10-20T12:07:44.930Z,39.10
2022-10-20T12:10:34.264Z,39.30
2022-10-20T12:13:28.428Z,39.40
2022-10-20T12:16:03.658Z,39.50
2022-10-20T12:18:38.728Z,39.70
2022-10-20T12:21:13.762Z,39.80
2022-10-20T12:23:53.193Z,39.90
2022-10-20T12:26:33.001Z,39.80
2022-10-20T12:29:30.840Z,39.90
2022-10-20T12:32:58.486Z,40.10
2022-10-20T12:36:12.089Z,40.20
2022-10-20T12:38:53.036Z,40.30
2022-10-20T12:41:33.896Z,40.30
2022-10-20T12:44:19.321Z,40.50
2022-10-20T12:47:05.025Z,40.60
2022-10-20T12:49:53.243Z,40.60
2022-10-20T12:52:34.150Z,40.80
2022-10-20T12:58:20.142Z,41.40
2022-10-20T13:00:56.757Z,41.70
2022-10-20T13:03:31.703Z,41.80
2022-10-20T13:06:30.106Z,42.10
2022-10-20T13:09:05.863Z,42.60
2022-10-20T13:11:57.127Z,43.60
2022-10-20T13:14:46.949Z,44.80
2022-10-20T13:17:52.270Z,45.20
2022-10-20T13:20:57.173Z,46.20
2022-10-20T13:23:46.643Z,47.50
2022-10-20T13:26:30.549Z,48.50
2022-10-20T13:29:17.308Z,50.40
2022-10-20T13:32:05.669Z,51.10
2022-10-20T13:34:54.626Z,52.30
2022-10-20T13:37:38.366Z,52.50
2022-10-20T13:41:05.857Z,53.10
2022-10-20T13:44:04.215Z,53.70
2022-10-20T13:46:46.334Z,54.50
2022-10-20T13:49:30.001Z,54.50
2022-10-20T13:52:14.482Z,54.60
2022-10-20T13:54:51.397Z,54.10
2022-10-20T13:57:29.079Z,54.20
2022-10-20T14:00:28.663Z,54.30
2022-10-20T14:03:16.692Z,54.50
2022-10-20T14:05:54.428Z,55.20
2022-10-20T14:08:29.533Z,55.20
2022-10-20T14:11:06.817Z,55.40
2022-10-20T14:13:43.346Z,55.50
2022-10-20T14:16:28.424Z,55.50
2022-10-20T14:19:13.081Z,56.00
2022-10-20T14:21:50.868Z,56.00
2022-10-20T14:24:33.261Z,56.10
2022-10-20T14:27:19.044Z,56.50
2022-10-20T14:29:54.491Z,56.60
2022-10-20T14:32:31.617Z,56.50
2022-10-20T14:35:23.620Z,56.70
2022-10-20T14:38:04.140Z,56.70
2022-10-20T14:40:39.187Z,56.70
2022-10-20T14:43:19.466Z,56.90
2022-10-20T14:46:03.103Z,57.00
2022-10-20T14:48:48.385Z,57.60
2022-10-20T14:51:42.020Z,58.30
2022-10-20T14:54:26.266Z,59.10
2022-10-20T14:57:10.304Z,59.40
2022-10-20T15:00:22.846Z,59.90
2022-10-20T15:03:03.024Z,60.10
2022-10-20T15:05:45.152Z,60.10
2022-10-20T15:08:29.503Z,60.10
2022-10-20T15:11:23.625Z,60.10
2022-10-20T15:14:00.600Z,60.30
2022-10-20T15:16:47.142Z,60.90
2022-10-20T15:19:34.916Z,61.10
2022-10-20T15:24:53.550Z,61.40
2022-10-20T15:27:28.459Z,61.60
2022-10-20T15:30:03.674Z,61.90
2022-10-20T15:32:38.685Z,61.80
2022-10-20T15:35:19.719Z,62.60
2022-10-20T15:37:56.287Z,63.40
2022-10-20T15:40:31.179Z,63.90
2022-10-20T15:43:06.106Z,64.60
2022-10-20T15:45:46.360Z,65.20
2022-10-20T15:48:25.776Z,65.40
2022-10-20T15:51:00.812Z,65.70
2022-10-20T15:53:35.663Z,66.10
2022-10-20T15:56:10.715Z,66.90
2022-10-20T15:58:46.409Z,67.10
2022-10-20T16:01:22.117Z,67.60
2022-10-20T16:03:57.593Z,68.30
2022-10-20T16:06:32.514Z,68.20
2022-10-20T16:09:09.650Z,68.30
2022-10-20T16:11:47.009Z,68.90
2022-10-20T16:14:22.040Z,69.50
2022-10-20T16:16:59.734Z,70.00
2022-10-20T16:19:34.726Z,70.40
2022-10-20T16:22:09.815Z,70.80
2022-10-20T16:24:46.536Z,71.00
2022-10-20T16:27:21.922Z,71.40
2022-10-20T16:29:56.966Z,71.60
2022-10-20T16:32:34.598Z,71.70
2022-10-20T16:35:11.021Z,71.70
2022-10-20T16:37:46.040Z,72.10
2022-10-20T16:40:21.184Z,72.20
2022-10-20T16:42:56.130Z,72.20
2022-10-20T16:45:31.194Z,72.20
2022-10-20T16:48:06.486Z,72.30
2022-10-20T16:50:42.993Z,72.50
2022-10-20T16:53:18.194Z,72.70
2022-10-20T16:55:56.978Z,72.90
2022-10-20T16:58:31.980Z,73.10
2022-10-20T17:01:11.255Z,73.00
2022-10-20T17:03:49.718Z,73.40
2022-10-20T17:06:26.570Z,73.40
2022-10-20T17:09:01.552Z,73.60
2022-10-20T17:11:36.714Z,74.20
2022-10-20T17:14:12.002Z,74.20
2022-10-20T17:16:47.377Z,74.40
2022-10-20T17:19:22.346Z,74.40
2022-10-20T17:21:57.464Z,74.50
2022-10-20T17:24:32.453Z,74.50
2022-10-20T17:27:07.650Z,74.80
2022-10-20T17:29:42.731Z,74.90
2022-10-20T17:32:18.337Z,75.00
2022-10-20T17:34:53.379Z,75.20
2022-10-20T17:37:28.305Z,75.30
2022-10-20T17:40:03.377Z,75.50
2022-10-20T17:42:38.772Z,76.50
2022-10-20T17:45:14.188Z,76.80
2022-10-20T17:47:50.989Z,76.70
2022-10-20T17:50:26.398Z,76.80
2022-10-20T17:53:01.829Z,76.70
2022-10-20T17:55:36.884Z,76.80
2022-10-20T17:58:11.860Z,77.00
2022-10-20T18:00:55.941Z,77.10
2022-10-20T18:03:31.977Z,77.30
2022-10-20T18:06:08.808Z,77.50
2022-10-20T18:08:46.204Z,77.50
2022-10-20T18:11:25.510Z,77.70
2022-10-20T18:14:00.673Z,78.20
2022-10-20T18:16:37.926Z,77.90
2022-10-20T18:19:18.718Z,78.10
2022-10-20T18:21:53.663Z,78.30
2022-10-20T18:24:28.810Z,78.50
2022-10-20T18:27:05.655Z,79.20
2022-10-20T18:29:40.780Z,79.40
2022-10-20T18:32:15.771Z,79.40
2022-10-20T18:34:50.747Z,79.10
2022-10-20T18:37:25.659Z,79.20
2022-10-20T18:40:02.788Z,79.50
2022-10-20T18:42:37.674Z,80.00
2022-10-20T18:45:12.594Z,80.20
2022-10-20T18:47:48.174Z,80.30
2022-10-20T18:50:23.197Z,80.50
2022-10-20T18:52:58.266Z,81.00
2022-10-20T18:55:33.162Z,81.10
2022-10-20T18:58:08.121Z,81.30
2022-10-20T19:00:43.053Z,81.40
2022-10-20T19:03:18.111Z,81.60
2022-10-20T19:05:59.779Z,81.80
2022-10-20T19:08:36.809Z,81.90
2022-10-20T19:11:13.581Z,81.90
2022-10-20T19:13:48.891Z,81.90
2022-10-20T19:16:27.803Z,82.00
2022-10-20T19:19:06.590Z,82.10
2022-10-20T19:21:41.947Z,82.20
2022-10-20T19:24:20.650Z,82.30
2022-10-20T19:27:27.265Z,82.20
2022-10-20T19:29:53.394Z,82.30
2022-10-20T19:32:28.297Z,82.50
2022-10-20T19:35:03.700Z,82.60
2022-10-20T19:37:38.637Z,83.10
2022-10-20T19:40:13.782Z,83.10
2022-10-20T19:42:48.860Z,82.70
2022-10-20T19:45:24.238Z,82.70
2022-10-20T19:47:59.113Z,82.70
2022-10-20T19:50:35.002Z,82.70
2022-10-20T19:53:09.930Z,82.70
2022-10-20T19:55:49.470Z,82.80
2022-10-20T19:58:24.701Z,82.90
2022-10-20T20:01:00.246Z,83.00
2022-10-20T20:03:35.246Z,83.00
2022-10-20T20:06:16.423Z,82.70
2022-10-20T20:08:59.187Z,82.80
2022-10-20T20:11:36.491Z,83.00
2022-10-20T20:14:20.454Z,82.90
2022-10-20T20:16:55.466Z,82.90
2022-10-20T20:19:30.379Z,83.20
2022-10-20T20:22:05.753Z,83.30
2022-10-20T20:24:40.782Z,83.70
2022-10-20T20:27:15.757Z,83.90
2022-10-20T20:29:50.705Z,83.90
2022-10-20T20:32:26.293Z,84.10
2022-10-20T20:35:01.295Z,84.30
2022-10-20T20:37:36.615Z,84.40
2022-10-20T20:40:12.066Z,84.40
2022-10-20T20:42:47.518Z,84.40
2022-10-20T20:45:22.495Z,84.30
2022-10-20T20:47:57.435Z,84.40
2022-10-20T20:50:32.533Z,84.50
2022-10-20T20:53:07.690Z,84.70
2022-10-20T20:56:00.028Z,84.70
2022-10-20T20:58:35.296Z,84.50
2022-10-20T21:01:17.392Z,84.40
2022-10-20T21:03:57.960Z,84.40
2022-10-20T21:06:38.078Z,84.40
2022-10-20T21:09:24.737Z,84.40
2022-10-20T21:12:00.230Z,84.50
2022-10-20T21:14:35.203Z,84.40
2022-10-20T21:17:10.249Z,84.20
2022-10-20T21:19:45.157Z,84.00
2022-10-20T21:22:20.184Z,83.80
2022-10-20T21:24:55.118Z,83.90
2022-10-20T21:27:30.325Z,83.90
2022-10-20T21:30:05.713Z,83.80
2022-10-20T21:32:40.797Z,83.80
2022-10-20T21:35:15.974Z,83.70
2022-10-20T21:37:50.863Z,84.20
2022-10-20T21:40:25.817Z,84.20
2022-10-20T21:43:00.721Z,84.10
2022-10-20T21:45:36.122Z,84.20
2022-10-20T21:48:11.042Z,84.20
2022-10-20T21:50:46.002Z,84.20
2022-10-20T21:53:20.970Z,84.40
2022-10-20T21:55:58.753Z,84.40
2022-10-20T21:58:35.252Z,84.40
2022-10-20T22:01:13.236Z,84.50
2022-10-20T22:03:49.309Z,84.80
2022-10-20T22:06:27.528Z,84.70
2022-10-20T22:09:02.855Z,85.10
2022-10-20T22:11:44.901Z,85.20
2022-10-20T22:14:19.924Z,85.20
2022-10-20T22:16:56.507Z,85.10
2022-10-20T22:19:31.451Z,85.20
2022-10-20T22:22:06.395Z,85.30
2022-10-20T22:24:41.555Z,85.40
2022-10-20T22:27:25.297Z,85.50
2022-10-20T22:30:12.340Z,85.60
2022-10-20T22:32:47.312Z,85.60
2022-10-20T22:35:22.202Z,85.90
2022-10-20T22:37:57.198Z,85.90
2022-10-20T22:40:32.199Z,86.00
2022-10-20T22:43:08.997Z,85.80
2022-10-20T22:45:43.960Z,85.80
2022-10-20T22:48:18.941Z,85.90
2022-10-20T22:50:53.909Z,85.90
2022-10-20T22:53:28.919Z,86.00
2022-10-20T22:56:20.216Z,86.00
2022-10-20T22:58:55.611Z,86.00
2022-10-20T23:01:30.661Z,86.00
2022-10-20T23:04:05.693Z,85.90
2022-10-20T23:06:41.317Z,85.70
2022-10-20T23:09:16.328Z,85.70
2022-10-20T23:11:51.323Z,86.20
2022-10-20T23:14:26.299Z,85.90
2022-10-20T23:17:01.243Z,85.80
2022-10-20T23:19:36.187Z,86.00
2022-10-20T23:22:11.172Z,85.80
2022-10-20T23:24:46.380Z,86.00
2022-10-20T23:27:21.428Z,86.00
2022-10-20T23:29:56.433Z,86.00
2022-10-20T23:32:31.421Z,86.10
2022-10-20T23:35:07.252Z,86.30
2022-10-20T23:37:42.195Z,86.30
2022-10-20T23:40:17.533Z,86.70
2022-10-20T23:42:52.619Z,86.80
2022-10-20T23:45:27.541Z,87.00
2022-10-20T23:48:02.439Z,87.10
2022-10-20T23:50:37.382Z,87.30
2022-10-20T23:53:12.594Z,87.30
2022-10-20T23:55:47.576Z,87.30
2022-10-20T23:58:23.265Z,87.10
